createdAt,value
2018-09-29T00:00:35.545Z,7.33
2018-09-29T00:03:02.670Z,8.87
2018-09-29T00:05:29.769Z,4.40
2018-09-29T00:07:56.881Z,8.43
2018-09-29T00:10:23.995Z,6.80
2018-09-29T00:12:51.111Z,4.80
2018-09-29T00:15:18.235Z,5.40
2018-09-29T00:17:45.337Z,11.33
2018-09-29T00:20:12.442Z,6.90
2018-09-29T00:22:39.586Z,4.83
2018-09-29T00:25:06.770Z,6.63
2018-09-29T00:27:33.869Z,5.67
2018-09-29T00:30:00.974Z,6.70
2018-09-29T00:32:28.150Z,3.87
2018-09-29T00:34:55.294Z,8.97
2018-09-29T00:37:22.470Z,7.13
2018-09-29T00:39:49.616Z,9.63
2018-09-29T00:42:16.694Z,4.40
2018-09-29T00:44:43.885Z,8.70
2018-09-29T00:47:11.062Z,6.40
2018-09-29T00:49:38.215Z,4.83
2018-09-29T00:52:05.355Z,10.30
2018-09-29T00:54:32.475Z,7.10
2018-09-29T00:56:59.666Z,13.50
2018-09-29T00:59:26.771Z,8.07
2018-09-29T01:01:53.887Z,7.10
2018-09-29T01:04:20.994Z,12.13
2018-09-29T01:06:48.153Z,7.93
2018-09-29T01:09:15.252Z,7.63
2018-09-29T01:11:42.371Z,10.37
2018-09-29T01:14:09.509Z,7.50
2018-09-29T01:16:36.618Z,7.47
2018-09-29T01:19:03.767Z,9.27
2018-09-29T01:21:30.899Z,11.93
2018-09-29T01:23:58.010Z,7.20
2018-09-29T01:26:25.206Z,5.17
2018-09-29T01:28:52.321Z,7.53
2018-09-29T01:31:19.490Z,6.33
2018-09-29T01:33:46.634Z,5.63
2018-09-29T01:36:13.749Z,9.80
2018-09-29T01:38:40.854Z,5.83
2018-09-29T01:41:07.961Z,7.07
2018-09-29T01:43:35.095Z,6.13
2018-09-29T01:46:02.197Z,15.63
2018-09-29T01:48:29.318Z,5.03
2018-09-29T01:50:56.422Z,2.87
2018-09-29T01:53:23.534Z,4.80
2018-09-29T01:55:50.723Z,7.07
2018-09-29T01:58:17.854Z,5.00
2018-09-29T02:00:44.990Z,7.03
2018-09-29T02:03:12.681Z,2.10
2018-09-29T02:05:41.165Z,3.80
2018-09-29T02:08:08.399Z,2.97
2018-09-29T02:10:35.787Z,4.00
2018-09-29T02:13:03.129Z,3.87
2018-09-29T02:15:30.893Z,6.63
2018-09-29T02:17:58.006Z,6.73
2018-09-29T02:20:25.227Z,8.27
2018-09-29T02:22:52.457Z,8.80
2018-09-29T02:25:19.575Z,4.73
2018-09-29T02:27:46.669Z,3.47
2018-09-29T02:30:13.778Z,5.23
2018-09-29T02:32:40.899Z,3.90
2018-09-29T02:35:08.015Z,4.07
2018-09-29T02:37:35.171Z,3.00
2018-09-29T02:40:02.301Z,4.83
2018-09-29T02:42:29.438Z,3.57
2018-09-29T02:44:56.547Z,4.00
2018-09-29T02:47:23.682Z,6.97
2018-09-29T02:49:50.773Z,5.10
2018-09-29T02:52:17.935Z,3.33
2018-09-29T02:54:45.058Z,2.50
2018-09-29T02:57:12.176Z,5.10
2018-09-29T02:59:39.295Z,4.60
2018-09-29T03:02:06.434Z,4.57
2018-09-29T03:04:33.513Z,5.63
2018-09-29T03:07:00.815Z,5.00
2018-09-29T03:09:27.871Z,6.77
2018-09-29T03:11:54.983Z,2.30
2018-09-29T03:14:22.092Z,4.17
2018-09-29T03:16:49.190Z,4.00
2018-09-29T03:19:16.342Z,3.10
2018-09-29T03:21:43.431Z,8.00
2018-09-29T03:24:10.548Z,7.50
2018-09-29T03:26:37.659Z,4.37
2018-09-29T03:29:04.785Z,7.37
2018-09-29T03:31:31.976Z,8.13
2018-09-29T03:33:59.046Z,5.80
2018-09-29T03:36:26.150Z,7.40
2018-09-29T03:38:53.262Z,3.30
2018-09-29T03:41:20.364Z,6.33
2018-09-29T03:43:47.486Z,4.93
2018-09-29T03:46:14.837Z,6.50
2018-09-29T03:48:41.991Z,3.87
2018-09-29T03:51:09.109Z,5.07
2018-09-29T03:53:36.324Z,6.47
2018-09-29T03:56:03.545Z,6.37
2018-09-29T03:58:30.686Z,3.50
2018-09-29T04:00:57.793Z,5.67
2018-09-29T04:03:24.889Z,4.40
2018-09-29T04:05:52.002Z,2.40
2018-09-29T04:08:19.102Z,5.50
2018-09-29T04:10:46.315Z,6.70
2018-09-29T04:13:13.415Z,3.97
2018-09-29T04:15:40.522Z,5.53
2018-09-29T04:18:07.655Z,5.43
2018-09-29T04:20:34.780Z,4.97
2018-09-29T04:23:01.878Z,5.70
2018-09-29T04:25:29.009Z,5.70
2018-09-29T04:27:56.139Z,4.40
2018-09-29T04:30:23.231Z,3.43
2018-09-29T04:32:50.345Z,3.23
2018-09-29T04:35:17.451Z,5.50
2018-09-29T04:37:44.557Z,3.67
2018-09-29T04:40:11.705Z,3.10
2018-09-29T04:42:38.810Z,5.73
2018-09-29T04:45:05.940Z,5.33
2018-09-29T04:47:34.061Z,5.10
2018-09-29T04:50:01.177Z,10.40
2018-09-29T04:52:28.290Z,5.27
2018-09-29T04:54:55.561Z,5.20
2018-09-29T04:57:22.663Z,6.93
2018-09-29T04:59:49.762Z,5.93
2018-09-29T05:02:16.871Z,5.37
2018-09-29T05:04:43.983Z,3.43
2018-09-29T05:07:11.324Z,4.93
2018-09-29T05:09:38.403Z,8.43
2018-09-29T05:12:05.622Z,5.40
2018-09-29T05:14:32.724Z,8.13
2018-09-29T05:16:59.865Z,5.53
2018-09-29T05:19:27.011Z,5.73
2018-09-29T05:21:54.175Z,5.63
2018-09-29T05:24:21.321Z,9.50
2018-09-29T05:26:48.441Z,5.40
2018-09-29T05:29:15.668Z,7.57
2018-09-29T05:31:42.822Z,5.63
2018-09-29T05:34:10.023Z,6.70
2018-09-29T05:36:37.131Z,4.13
2018-09-29T05:39:05.766Z,6.20
2018-09-29T05:41:32.903Z,3.57
2018-09-29T05:44:00.075Z,3.67
2018-09-29T05:46:27.200Z,5.43
2018-09-29T05:48:54.313Z,3.90
2018-09-29T05:51:21.502Z,6.77
2018-09-29T05:53:48.665Z,4.77
2018-09-29T05:56:15.717Z,5.40
2018-09-29T05:58:42.838Z,4.77
2018-09-29T06:01:09.976Z,3.70
2018-09-29T06:03:37.165Z,5.07
2018-09-29T06:06:04.386Z,4.27
2018-09-29T06:08:31.504Z,6.20
2018-09-29T06:10:58.618Z,5.73
2018-09-29T06:13:25.728Z,4.33
2018-09-29T06:15:52.845Z,9.30
2018-09-29T06:18:19.954Z,7.53
2018-09-29T06:20:47.187Z,5.90
2018-09-29T06:23:14.355Z,6.83
2018-09-29T06:28:15.163Z,4.13
2018-09-29T06:30:42.346Z,4.43
2018-09-29T06:33:09.544Z,6.67
2018-09-29T06:35:36.674Z,7.83
2018-09-29T06:38:03.796Z,14.60
2018-09-29T06:40:30.998Z,7.20
2018-09-29T06:42:58.102Z,5.73
2018-09-29T06:45:25.239Z,10.10
2018-09-29T06:47:52.413Z,8.00
2018-09-29T06:50:19.470Z,9.70
2018-09-29T06:52:46.615Z,9.33
2018-09-29T06:55:13.726Z,9.90
2018-09-29T06:57:41.127Z,6.90
2018-09-29T07:00:08.238Z,6.40
2018-09-29T07:02:35.356Z,11.60
2018-09-29T07:05:02.581Z,4.63
2018-09-29T07:07:29.699Z,9.83
2018-09-29T07:09:57.500Z,6.67
2018-09-29T07:12:24.611Z,7.07
2018-09-29T07:14:51.738Z,3.73
2018-09-29T07:17:18.870Z,5.90
2018-09-29T07:19:46.005Z,5.10
2018-09-29T07:22:13.140Z,8.30
2018-09-29T07:24:40.340Z,9.53
2018-09-29T07:27:07.495Z,7.00
2018-09-29T07:29:34.694Z,5.33
2018-09-29T07:32:01.829Z,9.00
2018-09-29T07:34:28.950Z,9.53
2018-09-29T07:36:56.053Z,7.30
2018-09-29T07:39:23.269Z,4.47
2018-09-29T07:41:50.398Z,5.07
2018-09-29T07:44:17.582Z,8.93
2018-09-29T07:46:44.695Z,6.00
2018-09-29T07:49:11.885Z,9.70
2018-09-29T07:51:39.089Z,6.40
2018-09-29T07:54:06.253Z,9.67
2018-09-29T07:56:33.383Z,5.40
2018-09-29T07:59:00.483Z,7.63
2018-09-29T08:01:27.625Z,8.77
2018-09-29T08:03:54.754Z,8.03
2018-09-29T08:06:21.933Z,7.30
2018-09-29T08:08:48.982Z,5.50
2018-09-29T08:11:16.130Z,6.10
2018-09-29T08:13:43.286Z,10.63
2018-09-29T08:16:10.758Z,5.33
2018-09-29T08:18:37.954Z,5.70
2018-09-29T08:21:05.076Z,8.33
2018-09-29T08:23:32.286Z,7.67
2018-09-29T08:25:59.430Z,14.53
2018-09-29T08:28:26.904Z,6.10
2018-09-29T08:30:54.039Z,6.83
2018-09-29T08:33:21.151Z,6.63
2018-09-29T08:35:48.288Z,5.97
2018-09-29T08:38:15.481Z,13.00
2018-09-29T08:40:42.622Z,5.37
2018-09-29T08:43:09.723Z,7.17
2018-09-29T08:45:37.831Z,7.53
2018-09-29T08:48:05.000Z,7.23
2018-09-29T08:50:32.112Z,3.03
2018-09-29T08:52:59.201Z,10.47
2018-09-29T08:55:26.331Z,5.27
2018-09-29T08:57:53.445Z,7.97
2018-09-29T09:00:20.569Z,5.40
2018-09-29T09:02:47.728Z,5.30
2018-09-29T09:05:14.829Z,6.53
2018-09-29T09:07:41.935Z,10.30
2018-09-29T09:10:09.061Z,6.73
2018-09-29T09:12:36.173Z,5.20
2018-09-29T09:15:03.329Z,8.90
2018-09-29T09:17:30.467Z,6.63
2018-09-29T09:19:57.562Z,3.90
2018-09-29T09:22:24.681Z,6.33
2018-09-29T09:24:51.832Z,4.70
2018-09-29T09:27:18.945Z,6.33
2018-09-29T09:29:46.077Z,3.70
2018-09-29T09:32:13.217Z,4.60
2018-09-29T09:34:40.465Z,5.20
2018-09-29T09:37:07.613Z,8.47
2018-09-29T09:39:34.725Z,4.00
2018-09-29T09:42:01.849Z,3.80
2018-09-29T09:44:28.991Z,4.40
2018-09-29T09:46:56.148Z,7.13
2018-09-29T09:49:23.284Z,4.60
2018-09-29T09:51:50.401Z,3.70
2018-09-29T09:54:17.501Z,6.63
2018-09-29T09:56:44.620Z,5.67
2018-09-29T09:59:11.781Z,8.53
2018-09-29T10:01:44.433Z,6.80
2018-09-29T10:04:11.743Z,5.90
2018-09-29T10:06:38.862Z,4.13
2018-09-29T10:09:07.335Z,6.33
2018-09-29T10:11:34.432Z,2.80
2018-09-29T10:14:01.543Z,4.23
2018-09-29T10:16:34.818Z,3.10
2018-09-29T10:19:07.482Z,6.97
2018-09-29T10:21:40.032Z,6.43
2018-09-29T10:24:07.239Z,1.20
2018-09-29T10:26:39.942Z,2.33
2018-09-29T10:29:12.654Z,1.47
2018-09-29T10:31:45.355Z,5.63
2018-09-29T10:34:18.187Z,2.63
2018-09-29T10:39:29.150Z,4.90
2018-09-29T10:42:01.770Z,2.67
2018-09-29T10:44:34.273Z,2.53
2018-09-29T10:49:39.665Z,9.70
2018-09-29T10:52:12.287Z,3.27
2018-09-29T10:54:39.389Z,4.83
2018-09-29T10:59:45.026Z,5.37
2018-09-29T11:02:12.133Z,7.33
2018-09-29T11:07:17.668Z,2.57
2018-09-29T11:09:50.375Z,3.23
2018-09-29T11:12:23.089Z,3.13
2018-09-29T11:14:55.951Z,2.20
2018-09-29T11:17:23.049Z,2.10
2018-09-29T11:19:55.776Z,1.47
2018-09-29T11:22:28.550Z,2.30
2018-09-29T11:25:06.942Z,1.67
2018-09-29T11:27:39.574Z,2.53
2018-09-29T11:30:12.498Z,2.20
2018-09-29T11:32:45.191Z,1.43
2018-09-29T11:35:12.299Z,4.50
2018-09-29T11:37:50.641Z,3.77
2018-09-29T11:40:17.754Z,2.20
2018-09-29T11:42:44.858Z,2.47
2018-09-29T11:45:11.954Z,1.00
2018-09-29T11:50:17.372Z,1.40
2018-09-29T11:52:44.475Z,2.83
2018-09-29T11:55:11.582Z,3.20
2018-09-29T11:57:38.673Z,1.53
2018-09-29T12:00:05.821Z,3.33
2018-09-29T12:02:44.110Z,1.40
2018-09-29T12:19:00.727Z,4.10
2018-09-29T12:21:33.231Z,4.30
2018-09-29T12:24:00.337Z,2.30
2018-09-29T12:26:27.476Z,3.20
2018-09-29T12:29:05.760Z,4.70
2018-09-29T12:31:38.126Z,4.30
2018-09-29T12:34:11.885Z,1.43
2018-09-29T12:36:44.513Z,1.73
2018-09-29T13:09:22.965Z,2.37
2018-09-29T13:11:50.092Z,2.30
2018-09-29T13:14:17.212Z,0.90
2018-09-29T13:16:44.359Z,3.77
2018-09-29T13:19:11.498Z,2.30
2018-09-29T13:21:38.682Z,3.17
2018-09-29T13:24:05.873Z,3.30
2018-09-29T13:26:32.965Z,3.40
2018-09-29T13:29:00.074Z,2.67
2018-09-29T13:31:27.233Z,2.70
2018-09-29T13:33:54.370Z,3.13
2018-09-29T13:36:21.473Z,5.10
2018-09-29T13:38:49.869Z,2.73
2018-09-29T13:41:17.066Z,2.50
2018-09-29T13:43:44.446Z,3.40
2018-09-29T13:46:11.553Z,3.67
2018-09-29T13:48:38.683Z,3.23
2018-09-29T13:51:05.859Z,1.70
2018-09-29T13:53:33.061Z,2.10
2018-09-29T13:56:00.170Z,2.30
2018-09-29T13:58:27.269Z,2.00
2018-09-29T14:00:54.378Z,2.80
2018-09-29T14:03:21.515Z,1.27
2018-09-29T14:05:48.640Z,6.07
2018-09-29T14:08:15.742Z,9.03
2018-09-29T14:10:42.851Z,2.10
2018-09-29T14:13:09.952Z,1.80
2018-09-29T14:15:37.313Z,2.73
2018-09-29T14:18:04.434Z,3.63
2018-09-29T14:20:31.530Z,2.00
2018-09-29T14:22:58.662Z,2.10
2018-09-29T14:25:25.763Z,3.37
2018-09-29T14:27:52.862Z,2.47
2018-09-29T14:30:19.962Z,7.80
2018-09-29T14:32:47.058Z,1.70
2018-09-29T14:35:14.240Z,4.50
2018-09-29T14:37:41.351Z,3.50
2018-09-29T14:40:08.507Z,2.70
2018-09-29T14:42:35.601Z,3.47
2018-09-29T14:45:02.819Z,6.17
2018-09-29T14:47:29.890Z,3.83
2018-09-29T14:49:56.992Z,4.90
2018-09-29T14:52:24.122Z,3.80
2018-09-29T14:54:51.202Z,2.13
2018-09-29T14:57:18.326Z,1.53
2018-09-29T14:59:45.465Z,2.80
2018-09-29T15:02:12.603Z,1.00
2018-09-29T15:04:39.742Z,4.03
2018-09-29T15:07:06.859Z,1.53
2018-09-29T15:09:33.974Z,1.57
2018-09-29T15:12:01.098Z,1.27
2018-09-29T15:14:28.260Z,3.03
2018-09-29T15:16:55.362Z,2.20
2018-09-29T15:19:22.477Z,2.00
2018-09-29T15:21:49.586Z,2.97
2018-09-29T15:24:16.726Z,2.70
2018-09-29T15:26:43.836Z,1.07
2018-09-29T15:29:10.931Z,1.23
2018-09-29T15:31:38.026Z,5.93
2018-09-29T15:34:05.160Z,3.13
2018-09-29T15:36:32.250Z,2.00
2018-09-29T15:38:59.373Z,1.90
2018-09-29T15:41:26.470Z,3.33
2018-09-29T15:43:53.615Z,2.27
2018-09-29T15:46:20.736Z,2.87
2018-09-29T15:48:47.972Z,3.97
2018-09-29T15:51:15.020Z,1.13
2018-09-29T15:53:42.125Z,4.13
2018-09-29T15:56:09.274Z,1.30
2018-09-29T15:58:36.362Z,2.13
2018-09-29T16:01:09.850Z,2.43
2018-09-29T16:03:36.954Z,1.83
2018-09-29T16:06:04.062Z,1.40
2018-09-29T16:08:31.174Z,1.27
2018-09-29T16:10:58.304Z,2.90
2018-09-29T16:13:25.504Z,6.40
2018-09-29T16:15:52.664Z,1.77
2018-09-29T16:18:19.767Z,1.80
2018-09-29T16:20:46.975Z,2.70
2018-09-29T16:23:14.061Z,3.67
2018-09-29T16:25:41.171Z,6.33
2018-09-29T16:28:08.274Z,4.50
2018-09-29T16:30:35.402Z,1.33
2018-09-29T16:33:02.510Z,3.90
2018-09-29T16:35:29.620Z,3.33
2018-09-29T16:37:56.746Z,2.67
2018-09-29T16:40:23.851Z,1.70
2018-09-29T16:42:50.961Z,3.53
2018-09-29T16:45:18.066Z,6.33
2018-09-29T16:47:45.186Z,3.13
2018-09-29T16:50:12.314Z,2.20
2018-09-29T16:52:39.403Z,2.30
2018-09-29T16:55:06.562Z,4.87
2018-09-29T16:57:33.643Z,2.10
2018-09-29T17:00:00.821Z,2.70
2018-09-29T17:02:27.901Z,1.97
2018-09-29T17:04:55.026Z,2.30
2018-09-29T17:07:22.129Z,16.73
2018-09-29T17:09:49.229Z,3.33
2018-09-29T17:12:16.793Z,2.20
2018-09-29T17:14:43.910Z,4.13
2018-09-29T17:17:11.022Z,5.10
2018-09-29T17:19:38.150Z,2.53
2018-09-29T17:22:05.271Z,2.27
2018-09-29T17:24:32.427Z,5.03
2018-09-29T17:26:59.530Z,2.67
2018-09-29T17:29:26.639Z,3.63
2018-09-29T17:31:53.823Z,2.30
2018-09-29T17:34:20.869Z,8.60
2018-09-29T17:36:47.976Z,1.90
2018-09-29T17:39:15.106Z,1.50
2018-09-29T17:41:42.262Z,4.10
2018-09-29T17:44:09.361Z,2.03
2018-09-29T17:46:36.485Z,5.50
2018-09-29T17:49:04.449Z,1.70
2018-09-29T17:51:31.565Z,3.17
2018-09-29T17:53:58.710Z,3.30
2018-09-29T17:56:25.810Z,6.37
2018-09-29T17:58:52.970Z,8.23
2018-09-29T18:01:20.047Z,5.17
2018-09-29T18:03:47.164Z,4.60
2018-09-29T18:06:14.258Z,3.43
2018-09-29T18:08:41.357Z,2.07
2018-09-29T18:11:08.459Z,7.27
2018-09-29T18:13:35.601Z,8.20
2018-09-29T18:16:02.743Z,4.10
2018-09-29T18:18:29.850Z,5.37
2018-09-29T18:20:56.951Z,9.27
2018-09-29T18:23:24.050Z,6.60
2018-09-29T18:25:51.155Z,5.70
2018-09-29T18:28:18.266Z,3.40
2018-09-29T18:30:45.366Z,3.20
2018-09-29T18:33:12.493Z,5.73
2018-09-29T18:35:39.620Z,5.37
2018-09-29T18:38:06.770Z,5.63
2018-09-29T18:40:34.073Z,5.57
2018-09-29T18:43:01.178Z,6.60
2018-09-29T18:45:28.309Z,8.23
2018-09-29T18:47:55.406Z,9.17
2018-09-29T18:50:22.613Z,10.13
2018-09-29T18:52:49.731Z,10.23
2018-09-29T18:55:16.913Z,10.97
2018-09-29T18:57:44.052Z,11.43
2018-09-29T19:00:11.172Z,11.53
2018-09-29T19:02:38.302Z,14.20
2018-09-29T19:05:05.487Z,13.97
2018-09-29T19:07:32.742Z,13.77
2018-09-29T19:09:59.970Z,12.70
2018-09-29T19:12:27.075Z,17.10
2018-09-29T19:14:54.175Z,15.33
2018-09-29T19:17:21.294Z,19.00
2018-09-29T19:19:48.477Z,20.67
2018-09-29T19:22:15.639Z,18.63
2018-09-29T19:24:42.770Z,17.83
2018-09-29T19:27:09.902Z,15.50
2018-09-29T19:29:37.047Z,13.60
2018-09-29T19:32:04.226Z,12.63
2018-09-29T19:34:31.357Z,12.13
2018-09-29T19:36:58.466Z,10.50
2018-09-29T19:39:25.623Z,12.00
2018-09-29T19:41:52.999Z,11.40
2018-09-29T19:44:20.134Z,12.20
2018-09-29T19:46:47.234Z,8.90
2018-09-29T19:49:14.414Z,10.43
2018-09-29T19:51:41.557Z,13.97
2018-09-29T19:54:08.793Z,11.50
2018-09-29T19:56:35.906Z,9.50
2018-09-29T19:59:03.018Z,8.77
2018-09-29T20:01:30.141Z,6.93
2018-09-29T20:03:57.258Z,6.63
2018-09-29T20:06:24.364Z,5.07
2018-09-29T20:08:51.485Z,22.50
2018-09-29T20:11:18.630Z,31.80
2018-09-29T20:13:45.769Z,10.93
2018-09-29T20:16:12.891Z,6.57
2018-09-29T20:18:39.985Z,6.40
2018-09-29T20:21:07.091Z,6.03
2018-09-29T20:23:34.197Z,6.87
2018-09-29T20:26:01.307Z,7.20
2018-09-29T20:28:28.475Z,8.20
2018-09-29T20:30:55.574Z,6.40
2018-09-29T20:33:22.673Z,6.30
2018-09-29T20:35:49.823Z,10.00
2018-09-29T20:38:16.983Z,9.90
2018-09-29T20:40:44.101Z,7.87
2018-09-29T20:43:11.267Z,4.30
2018-09-29T20:45:38.382Z,5.67
2018-09-29T20:48:05.502Z,6.47
2018-09-29T20:50:32.631Z,8.00
2018-09-29T20:52:59.788Z,6.13
2018-09-29T20:55:26.915Z,9.23
2018-09-29T20:57:54.010Z,8.83
2018-09-29T21:00:21.141Z,6.90
2018-09-29T21:02:48.250Z,6.87
2018-09-29T21:05:15.383Z,7.40
2018-09-29T21:07:42.486Z,5.63
2018-09-29T21:10:09.586Z,6.83
2018-09-29T21:12:36.695Z,6.27
2018-09-29T21:15:03.822Z,5.90
2018-09-29T21:17:30.940Z,4.90
2018-09-29T21:19:58.069Z,6.30
2018-09-29T21:22:25.184Z,6.60
2018-09-29T21:24:52.340Z,7.13
2018-09-29T21:27:19.437Z,4.60
2018-09-29T21:29:46.583Z,4.50
2018-09-29T21:32:13.695Z,8.80
2018-09-29T21:34:40.814Z,4.33
2018-09-29T21:37:07.923Z,6.30
2018-09-29T21:39:35.231Z,6.53
2018-09-29T21:42:02.333Z,6.23
2018-09-29T21:44:29.479Z,5.50
2018-09-29T21:46:56.569Z,4.37
2018-09-29T21:49:23.722Z,3.80
2018-09-29T21:51:50.850Z,5.20
2018-09-29T21:54:18.807Z,7.33
2018-09-29T21:56:45.963Z,4.90
2018-09-29T21:59:13.053Z,4.40
2018-09-29T22:01:40.154Z,4.33
2018-09-29T22:04:07.266Z,7.43
2018-09-29T22:06:34.386Z,5.00
2018-09-29T22:09:01.500Z,5.93
2018-09-29T22:14:02.182Z,4.10
2018-09-29T22:16:29.292Z,5.13
2018-09-29T22:18:56.415Z,5.40
2018-09-29T22:21:23.522Z,4.33
2018-09-29T22:23:50.635Z,5.13
2018-09-29T22:26:17.741Z,11.50
2018-09-29T22:28:44.849Z,7.10
2018-09-29T22:31:11.949Z,5.80
2018-09-29T22:33:39.055Z,6.87
2018-09-29T22:36:06.178Z,8.83
2018-09-29T22:38:33.330Z,4.87
2018-09-29T22:41:00.425Z,6.90
2018-09-29T22:43:27.534Z,7.17
2018-09-29T22:45:54.685Z,7.40
2018-09-29T22:48:21.878Z,5.80
2018-09-29T22:50:48.990Z,5.20
2018-09-29T22:53:16.097Z,4.10
2018-09-29T22:55:43.208Z,5.70
2018-09-29T22:58:10.319Z,4.70
2018-09-29T23:00:37.443Z,6.47
2018-09-29T23:03:04.570Z,5.60
2018-09-29T23:05:31.688Z,6.87
2018-09-29T23:07:58.797Z,5.50
2018-09-29T23:10:25.947Z,6.80
2018-09-29T23:12:53.064Z,4.87
2018-09-29T23:15:20.177Z,4.80
2018-09-29T23:17:47.266Z,7.10
2018-09-29T23:20:14.382Z,4.73
2018-09-29T23:22:41.483Z,6.70
2018-09-29T23:25:08.605Z,4.20
2018-09-29T23:27:35.695Z,5.40
2018-09-29T23:30:03.048Z,7.30
2018-09-29T23:32:30.245Z,5.97
2018-09-29T23:34:57.334Z,5.97
2018-09-29T23:37:24.458Z,5.73
2018-09-29T23:39:51.550Z,6.43
2018-09-29T23:42:18.651Z,6.47
2018-09-29T23:44:45.937Z,4.97
2018-09-29T23:47:13.041Z,6.23
2018-09-29T23:49:40.142Z,4.50
2018-09-29T23:52:07.350Z,7.30
2018-09-29T23:54:34.571Z,4.83
2018-09-29T23:57:01.622Z,5.50
2018-09-29T23:59:28.741Z,4.73
